Latest Weather Observations for Wangaratta

IDV60801

Issued at 2:02 pm EST Friday 29 July 2016 (issued every 30 minutes, with the page automatically refreshed every 10 minutes)

About weather observations | Map of weather stations | Latest weather observations for VIC | Other Formats
Station Details ID: 082138 Name: WANGARATTA AERO Lat: -36.42 Lon: 146.31 Height: 152.6 m
Data from the previous 72 hours. | See also: Recent months at Wangaratta
Date/Time
EST
Temp
°C
App
Temp
°C
Dew
Point
°C
Rel
Hum
%
Delta-T
°C
Wind Press
QNH
hPa
Press
MSL
hPa
Rain since
9am
mm
Dir  Spd
km/h
Gust
km/h
Spd
kts
Gust
kts
29/02:00pm 10.6 6.4 7.5 81 1.5 WNW 19 26 10 14 1022.5 1022.9 0.0
29/01:30pm 10.6 5.7 6.9 78 1.8 WNW 22 32 12 17 1022.9 1023.3 0.0
29/01:00pm 11.5 7.0 7.0 74 2.2 WNW 20 28 11 15 1022.8 1023.2 0.0
29/12:30pm 11.4 6.8 6.7 73 2.2 WNW 20 26 11 14 1023.4 1023.8 0.0
29/12:00pm 11.7 7.1 6.6 71 2.4 WNW 20 30 11 16 1023.8 1024.2 0.0
29/11:30am 11.7 7.7 6.8 72 2.4 WNW 17 24 9 13 1024.1 1024.5 0.0
29/11:00am 10.8 6.4 6.7 76 1.9 WNW 19 28 10 15 1024.6 1025.0 0.0
29/10:30am 10.4 7.3 7.3 81 1.5 WNW 13 17 7 9 1025.1 1025.5 0.0
29/10:00am 9.8 7.5 7.6 86 1.1 NNW 9 17 5 9 1025.1 1025.5 0.0
29/09:30am 9.5 7.3 7.9 90 0.8 NNW 9 11 5 6 1025.1 1025.5 0.0
29/09:00am 8.7 6.4 7.3 91 0.7 NW 9 13 5 7 1025.1 1025.5 0.6
29/08:30am 8.6 5.1 7.1 90 0.7 WNW 15 20 8 11 1025.2 1025.6 0.6
29/08:00am 9.0 4.6 6.6 85 1.1 WNW 19 26 10 14 1025.1 1025.5 0.6
29/07:30am 8.8 6.4 7.1 89 0.8 NW 9 11 5 6 1024.9 1025.3 0.6
29/07:00am 8.7 6.6 8.1 96 0.3 N 9 11 5 6 1024.7 1025.1 0.6
29/06:30am 8.7 6.6 8.4 98 0.1 N 9 11 5 6 1024.5 1024.9 0.6
29/06:00am 8.6 6.6 8.5 99 0.0 N 9 11 5 6 1024.1 1024.5 0.6
29/05:30am 8.6 6.6 8.5 99 0.0 N 9 11 5 6 1024.1 1024.5 0.6
29/05:00am 8.6 6.6 8.5 99 0.0 NNE 9 9 5 5 1024.0 1024.4 0.6
29/04:30am 8.6 6.6 8.5 99 0.0 N 9 11 5 6 1024.1 1024.5 0.6
29/04:00am 8.5 7.4 8.4 99 0.0 NNW 4 7 2 4 1024.1 1024.5 0.6
29/03:30am 8.6 6.9 8.5 99 0.0 N 7 9 4 5 1024.2 1024.6 0.6
29/03:00am 8.6 6.2 8.5 99 0.0 N 11 15 6 8 1024.3 1024.7 0.6
29/02:56am 8.6 6.2 8.5 99 0.0 NNW 11 15 6 8 1024.3 1024.7 0.6
29/02:30am 8.6 6.6 8.5 99 0.0 N 9 13 5 7 1024.4 1024.8 0.6
29/02:20am 8.6 6.9 8.5 99 0.0 N 7 11 4 6 1024.4 1024.8 0.6
29/02:00am 8.6 6.6 8.5 99 0.0 N 9 15 5 8 1024.4 1024.8 0.6
29/01:30am 8.7 7.2 8.6 99 0.0 N 6 9 3 5 1024.6 1025.0 0.6
29/01:00am 8.7 7.1 8.6 99 0.0 N 7 11 4 6 1024.6 1025.0 0.6
29/12:30am 8.8 6.8 8.7 99 0.0 N 9 11 5 6 1024.8 1025.2 0.6
29/12:00am 8.7 6.7 8.6 99 0.0 NNW 9 11 5 6 1025.2 1025.6 0.6
 
Date/Time
EST
Temp
°C
App
Temp
°C
Dew
Point
°C
Rel
Hum
%
Delta-T
°C
Wind Press
QNH
hPa
Press
MSL
hPa
Rain since
9am
mm
Dir  Spd
km/h
Gust
km/h
Spd
kts
Gust
kts
28/11:30pm 8.8 6.8 8.5 98 0.1 N 9 13 5 7 1025.4 1025.7 0.6
28/11:00pm 8.8 7.2 8.7 99 0.0 N 7 9 4 5 1025.5 1025.8 0.6
28/10:39pm 8.8 7.1 8.5 98 0.1 NNW 7 9 4 5 1025.6 1025.9 0.6
28/10:30pm 8.8 6.8 8.7 99 0.0 NNW 9 13 5 7 1025.7 1026.0 0.6
28/10:23pm 8.8 6.8 8.7 99 0.0 N 9 13 5 7 1025.8 1026.1 0.6
28/10:00pm 8.7 6.3 8.6 99 0.0 NNW 11 13 6 7 1025.9 1026.2 0.6
28/09:30pm 8.5 8.2 8.5 100 0.0 CALM 0 0 0 0 1026.1 1026.4 0.6
28/09:19pm 8.5 8.2 8.5 100 0.0 CALM 0 0 0 0 1026.1 1026.4 0.6
28/09:02pm 8.4 8.0 8.3 99 0.0 CALM 0 0 0 0 1026.2 1026.5 0.6
28/09:00pm 8.5 8.2 8.5 100 0.0 CALM 0 0 0 0 1026.2 1026.5 0.6
28/08:30pm 8.7 8.4 8.6 99 0.0 CALM 0 0 0 0 1026.3 1026.6 0.6
28/08:00pm 8.8 8.5 8.7 99 0.0 CALM 0 0 0 0 1026.3 1026.6 0.6
28/07:51pm 8.8 8.5 8.7 99 0.0 CALM 0 0 0 0 1026.3 1026.6 0.6
28/07:50pm 8.8 8.5 8.7 99 0.0 CALM 0 0 0 0 1026.3 1026.6 0.6
28/07:30pm 8.9 8.6 8.8 99 0.0 CALM 0 0 0 0 1026.4 1026.7 0.2
28/07:14pm 8.8 8.5 8.7 99 0.0 CALM 0 0 0 0 1026.4 1026.7 0.2
28/07:00pm 8.9 8.6 8.8 99 0.0 CALM 0 0 0 0 1026.4 1026.7 0.2
28/06:30pm 8.9 8.6 8.8 99 0.0 CALM 0 0 0 0 1026.1 1026.4 0.2
28/06:29pm 8.9 8.6 8.8 99 0.0 CALM 0 0 0 0 1026.1 1026.4 0.2
28/06:26pm 8.9 8.6 8.8 99 0.0 CALM 0 0 0 0 1026.1 1026.4 0.2
28/06:00pm 8.5 8.1 8.1 97 0.2 CALM 0 0 0 0 1025.8 1026.1 0.2
28/05:30pm 9.0 8.6 8.2 95 0.4 CALM 0 6 0 3 1025.7 1026.0 0.2
28/05:04pm 9.2 8.8 8.4 95 0.4 CALM 0 0 0 0 1025.7 1026.0 0.0
28/05:00pm 9.2 8.8 8.4 95 0.4 CALM 0 0 0 0 1025.6 1025.9 0.0
28/04:53pm 9.1 8.7 8.2 94 0.4 CALM 0 0 0 0 1025.6 1025.9 0.0
28/04:30pm 9.3 7.2 8.4 94 0.4 WSW 9 13 5 7 1025.6 1025.9 0.0
28/04:26pm 9.2 7.0 8.0 92 0.6 W 9 13 5 7 1025.6 1025.9 0.0
28/04:23pm 9.5 7.0 8.3 92 0.6 NW 11 15 6 8 1025.6 1025.9 0.0
28/04:00pm 10.0 7.5 8.1 88 0.9 NNW 11 15 6 8 1025.5 1025.8 0.0
28/03:30pm 9.8 7.2 7.6 86 1.1 NNW 11 15 6 8 1025.5 1025.8 0.0
28/03:00pm 9.9 7.2 7.2 83 1.3 NNW 11 17 6 9 1025.4 1025.7 0.0
28/02:30pm 10.2 8.1 6.7 79 1.7 NNE 7 9 4 5 1025.2 1025.6 0.0
28/02:00pm 10.2 9.5 7.1 81 1.5 CALM 0 9 0 5 1025.5 1025.8 0.0
28/01:30pm 10.2 8.6 6.4 77 1.8 WNW 4 11 2 6 1025.7 1026.0 0.0
28/01:00pm 10.3 7.7 6.3 76 1.9 W 9 13 5 7 1026.0 1026.3 0.0
28/12:30pm 10.1 8.0 6.6 79 1.7 WSW 7 13 4 7 1026.2 1026.5 0.0
28/12:00pm 9.8 7.4 6.9 82 1.4 WSW 9 13 5 7 1026.7 1027.0 0.0
28/11:30am 9.1 6.6 6.4 83 1.3 W 9 13 5 7 1027.2 1027.6 0.0
28/11:00am 8.8 7.8 5.5 80 1.5 CALM 0 0 0 0 1027.4 1027.8 0.0
28/10:30am 8.6 7.6 5.5 81 1.4 CALM 0 0 0 0 1027.3 1027.7 0.0
28/10:00am 8.4 6.3 5.7 83 1.2 NNW 6 9 3 5 1027.1 1027.5 0.0
28/09:30am 8.1 5.8 5.6 84 1.1 N 7 11 4 6 1027.1 1027.5 0.0
28/09:00am 8.0 6.6 5.3 83 1.2 N 2 9 1 5 1026.8 1027.1 0.0
28/08:30am 7.5 5.2 5.5 87 0.9 NNE 7 9 4 5 1026.7 1027.0 0.0
28/08:00am 6.6 4.2 5.4 92 0.5 NNW 7 7 4 4 1026.4 1026.7 0.0
28/07:30am 6.0 3.5 4.8 92 0.5 N 7 9 4 5 1026.2 1026.5 0.0
28/07:00am 5.7 3.1 4.3 91 0.6 NNW 7 7 4 4 1025.7 1026.0 0.0
28/06:30am 6.1 4.9 4.6 90 0.7 CALM 0 0 0 0 1025.2 1025.6 0.0
28/06:00am 6.8 4.8 4.5 85 1.0 N 4 9 2 5 1025.0 1025.4 0.0
28/05:30am 6.9 4.5 5.1 88 0.8 NNW 7 9 4 5 1024.7 1025.1 0.0
28/05:00am 7.1 5.6 4.9 86 1.0 N 2 9 1 5 1024.3 1024.7 0.0
28/04:30am 7.2 4.8 5.2 87 0.9 ENE 7 7 4 4 1024.1 1024.5 0.0
28/04:00am 7.7 6.5 4.8 82 1.3 CALM 0 6 0 3 1024.1 1024.5 0.0
28/03:30am 7.8 6.3 4.9 82 1.3 WSW 2 6 1 3 1024.3 1024.7 0.0
28/03:00am 7.8 4.6 4.9 82 1.3 W 11 15 6 8 1024.1 1024.5 0.0
28/02:30am 7.9 4.6 4.7 80 1.4 WNW 11 17 6 9 1024.2 1024.6 0.0
28/02:00am 7.8 6.6 4.6 80 1.4 CALM 0 7 0 4 1024.1 1024.5 0.0
28/01:30am 7.9 5.5 4.3 78 1.6 WNW 6 9 3 5 1024.1 1024.5 0.0
28/01:00am 7.3 4.7 4.4 82 1.3 WNW 7 11 4 6 1023.8 1024.2 0.0
28/12:30am 7.6 5.1 4.7 82 1.3 WNW 7 13 4 7 1023.6 1024.0 0.0
28/12:00am 7.4 4.5 4.4 81 1.3 NW 9 13 5 7 1023.3 1023.7 0.0
 
Date/Time
EST
Temp
°C
App
Temp
°C
Dew
Point
°C
Rel
Hum
%
Delta-T
°C
Wind Press
QNH
hPa
Press
MSL
hPa
Rain since
9am
mm
Dir  Spd
km/h
Gust
km/h
Spd
kts
Gust
kts
27/11:30pm 7.8 4.9 4.9 82 1.3 NW 9 13 5 7 1023.4 1023.8 0.0
27/11:00pm 7.4 4.8 4.4 81 1.3 NW 7 11 4 6 1023.5 1023.9 0.0
27/10:30pm 7.7 5.2 4.5 80 1.4 WSW 7 11 4 6 1023.4 1023.8 0.0
27/10:00pm 8.5 4.5 4.7 77 1.7 WSW 15 19 8 10 1023.5 1023.9 0.0
27/09:30pm 9.1 4.0 3.9 70 2.3 WSW 20 28 11 15 1023.6 1024.0 0.0
27/09:00pm 9.6 4.7 4.0 68 2.5 WSW 19 28 10 15 1023.2 1023.6 0.0
27/08:30pm 8.4 4.8 4.8 78 1.6 W 13 19 7 10 1022.5 1022.9 0.0
27/08:00pm 7.7 3.9 3.9 77 1.6 W 13 15 7 8 1022.0 1022.4 0.0
27/07:30pm 7.6 3.8 4.0 78 1.6 WSW 13 15 7 8 1021.8 1022.2 0.0
27/07:00pm 8.3 4.9 3.8 73 2.0 SW 11 15 6 8 1021.4 1021.8 0.0
27/06:30pm 9.0 4.8 3.8 70 2.3 SW 15 19 8 10 1020.7 1021.0 0.0
27/06:00pm 9.7 5.1 3.9 67 2.6 WSW 17 22 9 12 1020.3 1020.6 0.0
27/05:30pm 10.6 6.0 3.6 62 3.1 SW 17 26 9 14 1019.7 1020.0 0.0
27/05:00pm 11.0 6.1 4.2 63 3.1 WSW 19 24 10 13 1019.0 1019.3 0.0
27/04:30pm 11.1 6.3 5.6 69 2.6 SW 20 30 11 16 1018.3 1018.7 0.0
27/04:00pm 12.6 7.8 5.8 63 3.2 WSW 20 30 11 16 1017.3 1017.7 0.0
27/03:30pm 12.4 8.6 7.5 72 2.4 WSW 17 24 9 13 1017.1 1017.5 0.0
27/03:00pm 12.2 8.0 7.5 73 2.3 WSW 19 26 10 14 1016.9 1017.3 0.0
27/02:30pm 12.2 8.5 8.1 76 2.0 W 17 24 9 13 1016.1 1016.5 0.0
27/02:00pm 11.9 7.7 7.6 75 2.1 W 19 28 10 15 1015.8 1016.1 0.0
27/01:30pm 11.9 7.8 7.8 76 2.0 W 19 28 10 15 1015.6 1015.9 0.0
27/01:00pm 11.6 7.5 7.9 78 1.8 W 19 26 10 14 1015.5 1015.8 0.0
27/12:30pm 11.0 6.6 7.3 78 1.8 WNW 20 28 11 15 1015.4 1015.7 0.0
27/12:00pm 10.9 7.3 8.3 84 1.3 W 17 22 9 12 1015.5 1015.8 0.0
27/11:30am 10.5 6.4 7.9 84 1.3 W 19 26 10 14 1015.6 1015.9 0.0
27/11:00am 10.5 6.5 8.1 85 1.2 WSW 19 24 10 13 1015.3 1015.6 0.0
27/10:49am 10.3 6.2 7.9 85 1.2 W 19 24 10 13 1015.1 1015.4 0.0
27/10:30am 10.4 5.8 8.0 85 1.2 W 22 30 12 16 1014.8 1015.1 0.0
27/10:00am 9.3 4.8 7.1 86 1.0 W 20 26 11 14 1014.4 1014.7 0.0
27/09:30am 9.0 4.7 7.1 88 0.9 WSW 19 30 10 16 1013.9 1014.2 0.0
27/09:02am 8.9 5.0 7.0 88 0.9 W 17 26 9 14 1013.2 1013.5 0.0
27/09:00am 8.8 4.8 6.8 87 0.9 W 17 26 9 14 1013.2 1013.5 9.0
27/08:30am 8.7 5.1 6.8 88 0.9 W 15 20 8 11 1012.6 1012.9 9.0
27/08:00am 8.5 4.9 6.6 88 0.9 W 15 20 8 11 1011.9 1012.2 9.0
27/07:30am 8.3 4.3 6.6 89 0.8 W 17 24 9 13 1011.3 1011.7 9.0
27/07:01am 8.3 4.3 6.8 90 0.7 W 17 26 9 14 1010.8 1011.2 9.0
27/07:00am 8.3 4.0 6.8 90 0.7 W 19 26 10 14 1010.8 1011.2 9.0
27/06:30am 8.3 4.8 7.1 92 0.6 W 15 22 8 12 1010.2 1010.5 9.0
27/06:26am 8.3 4.4 6.9 91 0.7 W 17 22 9 12 1010.2 1010.5 9.0
27/06:00am 8.3 4.4 6.9 91 0.7 W 17 26 9 14 1009.6 1009.9 9.0
27/05:30am 8.3 4.0 6.8 90 0.7 WNW 19 24 10 13 1008.8 1009.1 9.0
27/05:00am 8.5 4.0 7.1 91 0.7 WNW 20 30 11 16 1008.3 1008.6 9.0
27/04:30am 8.1 5.6 8.0 99 0.0 WNW 11 17 6 9 1008.0 1008.3 9.0
27/04:21am 7.9 6.1 7.8 99 0.0 NW 7 13 4 7 1008.0 1008.3 9.0
27/04:16am 7.9 5.7 7.8 99 0.0 WNW 9 13 5 7 1008.0 1008.3 9.0
27/04:00am 7.6 6.6 7.5 99 0.0 W 2 7 1 4 1007.9 1008.2 9.0
27/03:30am 7.5 5.6 7.4 99 0.0 NW 7 9 4 5 1007.8 1008.1 8.2
27/03:00am 7.4 5.4 7.3 99 0.0 N 7 11 4 6 1008.0 1008.3 7.6
27/02:30am 7.4 5.4 7.3 99 0.0 N 7 13 4 7 1008.3 1008.6 6.2
27/02:24am 7.3 5.3 7.2 99 0.0 NNE 7 13 4 7 1008.3 1008.6 6.0
27/02:22am 7.4 5.1 7.3 99 0.0 NNE 9 13 5 7 1008.4 1008.7 6.0
27/02:03am 7.3 4.9 7.2 99 0.0 N 9 13 5 7 1008.7 1009.0 5.0
27/02:00am 7.4 5.1 7.3 99 0.0 N 9 15 5 8 1008.8 1009.1 4.8
27/01:58am 7.4 4.7 7.3 99 0.0 N 11 17 6 9 1008.8 1009.1 4.6
27/01:30am 7.3 4.2 7.2 99 0.0 NNE 13 17 7 9 1009.2 1009.5 3.0
27/01:00am 7.3 4.1 6.9 97 0.2 N 13 17 7 9 1009.8 1010.1 2.2
27/12:30am 7.5 4.6 6.6 94 0.4 NNE 11 15 6 8 1010.1 1010.4 1.0
27/12:00am 7.7 4.0 6.2 90 0.7 N 15 20 8 11 1010.4 1010.7 0.4
 
Date/Time
EST
Temp
°C
App
Temp
°C
Dew
Point
°C
Rel
Hum
%
Delta-T
°C
Wind Press
QNH
hPa
Press
MSL
hPa
Rain since
9am
mm
Dir  Spd
km/h
Gust
km/h
Spd
kts
Gust
kts
26/11:30pm 7.8 4.0 5.9 88 0.9 N 15 20 8 11 1010.7 1011.1 0.2
26/11:00pm 7.8 3.6 5.6 86 1.0 N 17 22 9 12 1011.0 1011.4 0.0
26/10:30pm 8.0 4.1 5.3 83 1.2 N 15 19 8 10 1011.4 1011.8 0.0
26/10:00pm 8.0 4.1 5.3 83 1.2 N 15 20 8 11 1011.5 1011.9 0.0
26/09:30pm 7.8 3.9 5.4 85 1.1 N 15 19 8 10 1011.7 1012.0 0.0
26/09:00pm 7.8 4.3 5.4 85 1.1 N 13 15 7 8 1012.0 1012.3 0.0
26/08:30pm 7.8 4.7 5.4 85 1.1 NNW 11 15 6 8 1012.5 1012.8 0.0
26/08:00pm 7.9 4.3 5.2 83 1.2 N 13 17 7 9 1012.6 1012.9 0.0
26/07:30pm 8.0 4.5 5.5 84 1.1 N 13 17 7 9 1012.9 1013.2 0.0
26/07:00pm 8.0 4.6 6.0 87 0.9 N 13 17 7 9 1013.0 1013.3 0.0
26/06:30pm 8.0 4.2 5.6 85 1.1 N 15 20 8 11 1013.2 1013.5 0.0
26/06:00pm 8.1 3.8 5.2 82 1.3 NNW 17 22 9 12 1013.1 1013.4 0.0
26/05:30pm 8.1 4.6 5.6 84 1.1 N 13 19 7 10 1012.9 1013.2 0.0
26/05:00pm 7.9 3.7 5.5 85 1.1 NNW 17 22 9 12 1012.8 1013.1 0.0
26/04:30pm 7.8 2.3 5.9 88 0.9 NNW 24 44 13 24 1012.9 1013.2 0.0
26/04:22pm 8.0 3.2 4.9 81 1.4 NNW 19 44 10 24 1012.9 1013.2 0.0
26/04:00pm 8.5 5.5 5.8 83 1.2 NW 11 15 6 8 1013.1 1013.4 0.0
26/03:30pm 9.7 4.8 4.1 68 2.5 NW 19 28 10 15 1013.3 1013.6 0.0
26/03:00pm 10.0 5.0 3.5 64 2.9 NW 19 26 10 14 1013.5 1013.8 0.0
26/02:30pm 9.9 5.3 3.6 65 2.8 NW 17 30 9 16 1013.7 1014.0 0.0

Other Formats:

Comma delimited format used in spreadsheet applications
http://www.bom.gov.au/fwo/IDV60801/IDV60801.94889.axf

JavaScript Object Notation format (JSON) in row-major order
http://www.bom.gov.au/fwo/IDV60801/IDV60801.94889.json